createdAt,value
2023-03-03T05:47:35.738Z,35.90
2023-03-03T05:50:04.149Z,36.50
2023-03-03T05:52:32.208Z,38.17
2023-03-03T05:55:00.106Z,37.33
2023-03-03T05:57:27.963Z,36.03
2023-03-03T05:59:55.888Z,37.15
2023-03-03T06:02:23.799Z,36.53
2023-03-03T06:04:53.076Z,35.60
2023-03-03T06:07:20.957Z,35.00
2023-03-03T06:09:48.915Z,37.13
2023-03-03T06:12:17.126Z,35.25
2023-03-03T06:14:45.085Z,35.35
2023-03-03T06:17:13.037Z,35.45
2023-03-03T06:19:41.519Z,36.63
2023-03-03T06:22:11.021Z,36.42
2023-03-03T06:24:39.313Z,35.25
2023-03-03T06:27:07.781Z,36.83
2023-03-03T06:29:35.746Z,35.47
2023-03-03T06:32:03.690Z,38.15
2023-03-03T06:34:31.806Z,36.83
2023-03-03T06:36:59.772Z,35.85
2023-03-03T06:39:29.298Z,37.03
2023-03-03T06:41:57.224Z,35.42
2023-03-03T06:44:27.072Z,37.60
2023-03-03T06:46:57.319Z,36.58
2023-03-03T06:49:25.446Z,35.95
2023-03-03T06:51:53.339Z,36.08
2023-03-03T06:54:27.759Z,34.90
2023-03-03T06:57:02.352Z,35.63
2023-03-03T06:59:30.338Z,35.65
2023-03-03T07:01:58.823Z,36.15
2023-03-03T07:04:30.917Z,37.97
2023-03-03T07:07:01.063Z,38.05
2023-03-03T07:09:30.542Z,38.00
2023-03-03T07:12:03.644Z,37.35
2023-03-03T07:14:31.883Z,37.88
2023-03-03T07:17:02.589Z,37.72
2023-03-03T07:19:35.400Z,35.45
2023-03-03T07:22:13.309Z,37.45
2023-03-03T07:24:42.678Z,38.28
2023-03-03T07:27:18.355Z,35.35
2023-03-03T07:29:48.847Z,34.92
2023-03-03T07:32:36.423Z,36.53
2023-03-03T07:35:23.886Z,36.10
2023-03-03T07:37:51.856Z,35.17
2023-03-03T07:40:35.880Z,36.67
2023-03-03T07:43:28.576Z,35.58
2023-03-03T15:03:00.776Z,30.05
2023-03-03T15:05:30.416Z,30.65
2023-03-03T15:08:09.017Z,30.92
2023-03-03T15:10:38.241Z,31.70
2023-03-03T15:13:35.075Z,29.60
2023-03-03T15:16:12.473Z,31.35
2023-03-03T15:19:21.398Z,28.10
2023-03-03T15:22:00.522Z,30.17
2023-03-03T15:24:39.437Z,30.88
2023-03-03T15:27:13.430Z,29.63
2023-03-03T15:29:52.040Z,31.48
2023-03-03T15:32:24.933Z,30.00
2023-03-03T15:35:00.094Z,30.00
2023-03-03T15:37:40.247Z,29.38
2023-03-03T15:40:22.136Z,30.02
2023-03-03T15:42:53.851Z,29.38
2023-03-03T15:45:28.681Z,29.63
2023-03-03T15:48:16.368Z,28.05
2023-03-03T15:50:56.913Z,28.60
2023-03-03T15:53:47.496Z,28.45
2023-03-03T15:56:24.303Z,28.20
2023-03-03T15:59:42.217Z,27.42
2023-03-03T16:02:20.097Z,28.48
2023-03-03T16:04:56.105Z,27.42
2023-03-03T16:07:37.186Z,28.95
2023-03-03T16:10:16.477Z,26.75
2023-03-03T16:12:54.094Z,27.30
2023-03-03T16:15:35.132Z,28.60
2023-03-03T16:18:12.343Z,29.65
2023-03-03T16:20:50.090Z,39.38
2023-03-03T16:23:32.864Z,37.80
2023-03-03T16:26:11.367Z,34.10
2023-03-03T16:28:57.008Z,35.55
2023-03-03T16:31:30.233Z,39.20
2023-03-03T16:34:08.356Z,30.10
2023-03-03T16:36:47.560Z,35.30
2023-03-03T16:39:25.910Z,29.40
2023-03-03T16:42:01.378Z,27.30
2023-03-03T16:44:40.663Z,28.13
2023-03-03T16:47:20.229Z,27.13
2023-03-03T16:49:57.648Z,31.40
2023-03-03T16:52:32.874Z,31.88
2023-03-03T16:55:10.853Z,29.73
2023-03-03T16:57:48.408Z,27.70
2023-03-03T17:00:21.218Z,27.23
2023-03-03T17:03:15.462Z,34.83
2023-03-03T17:05:51.462Z,27.92
2023-03-03T17:08:40.513Z,29.30
2023-03-03T17:11:20.700Z,29.92
2023-03-03T17:14:13.756Z,30.38
2023-03-03T17:16:52.887Z,33.25
2023-03-03T17:19:31.338Z,40.17
2023-03-03T17:22:12.197Z,39.17
2023-03-03T17:24:49.503Z,35.38
2023-03-03T17:27:26.944Z,42.53
2023-03-03T17:30:07.664Z,43.22
2023-03-03T17:32:54.780Z,47.05
2023-03-03T17:35:34.153Z,47.38
2023-03-03T17:38:11.470Z,46.13
2023-03-03T17:40:50.569Z,39.67
2023-03-03T17:43:24.812Z,51.72
2023-03-03T17:45:56.369Z,39.88
2023-03-03T17:48:53.470Z,48.70
2023-03-03T17:51:46.245Z,51.78
2023-03-03T17:54:35.666Z,42.80
2023-03-03T17:57:16.511Z,38.65
2023-03-03T18:00:03.004Z,37.95
2023-03-03T18:03:04.183Z,37.47
2023-03-03T18:05:50.872Z,40.05
2023-03-03T18:08:54.374Z,37.83
2023-03-03T18:11:40.580Z,34.53
2023-03-03T18:14:35.841Z,41.47
2023-03-03T18:17:36.874Z,34.42
2023-03-03T18:20:44.156Z,36.60
2023-03-03T18:23:31.209Z,41.85
2023-03-03T18:26:00.696Z,54.17
2023-03-03T18:28:46.265Z,37.60
2023-03-03T18:31:24.885Z,39.05
2023-03-03T18:34:09.804Z,43.40
2023-03-03T18:36:40.840Z,35.15
2023-03-03T18:39:15.328Z,35.53
2023-03-03T18:42:06.911Z,36.90
2023-03-03T18:44:35.001Z,34.35
2023-03-03T18:47:03.462Z,35.47
2023-03-03T18:49:55.524Z,34.30
2023-03-03T18:52:27.525Z,31.08
2023-03-03T18:55:23.596Z,33.40
2023-03-03T18:58:28.632Z,30.90
2023-03-03T19:01:00.597Z,31.17
2023-03-03T19:03:33.442Z,34.65
2023-03-03T19:06:03.847Z,30.58
2023-03-03T19:08:46.022Z,31.58
2023-03-03T19:11:37.843Z,37.53
2023-03-03T19:14:30.908Z,32.38
2023-03-03T19:17:00.603Z,31.63
2023-03-03T19:19:34.443Z,30.17
2023-03-03T19:22:25.593Z,29.10
2023-03-03T19:25:15.014Z,34.35
2023-03-03T19:27:46.649Z,31.42
2023-03-03T19:30:37.453Z,34.05
2023-03-03T19:33:25.724Z,39.75
2023-03-03T19:36:07.799Z,33.20
2023-03-03T19:38:45.235Z,34.90
2023-03-03T19:41:34.217Z,38.33
2023-03-03T19:44:12.567Z,38.08
2023-03-03T19:46:56.846Z,40.33
2023-03-03T19:49:39.723Z,39.50
2023-03-03T19:52:17.620Z,39.45
2023-03-03T19:54:59.877Z,39.95
2023-03-03T19:57:41.752Z,34.05
2023-03-03T20:00:20.053Z,32.03
2023-03-03T20:02:59.864Z,33.47
2023-03-03T20:05:37.574Z,32.75
2023-03-03T20:08:15.058Z,31.27
2023-03-03T20:10:51.516Z,30.98
2023-03-03T20:13:34.627Z,31.95
2023-03-03T20:16:14.371Z,33.53
2023-03-03T20:19:01.557Z,33.55
2023-03-03T20:21:35.367Z,33.08
2023-03-03T20:24:36.679Z,32.65
2023-03-03T20:27:10.867Z,32.33
2023-03-03T20:29:54.285Z,32.85
2023-03-03T20:32:32.631Z,33.92
2023-03-03T20:35:11.939Z,32.78
2023-03-03T20:37:50.722Z,31.00
2023-03-03T20:40:30.918Z,33.05
2023-03-03T20:43:11.471Z,33.28
2023-03-03T20:45:49.792Z,32.28
2023-03-03T20:48:32.328Z,31.50
2023-03-03T20:51:06.593Z,34.28
2023-03-03T20:53:45.477Z,32.97
2023-03-03T20:56:17.976Z,32.75
2023-03-03T20:58:59.495Z,32.80
